Time;durP1;ratioP1;P1;durP2;ratioP2;P2;SDS_P1;SDS_P2;PMS_P1;PMS_P2;Temp;Humidity;BMP_temperature;BMP_pressure;BME280_temperature;BME280_humidity;BME280_pressure;Samples;Min_cycle;Max_cycle;Signal;HPM_P1;HPM_P2
2022/10/18 00:02:00;;;;;;;1.53;1.00;;;16.60;98.20;;;;;;5098151;27;21015;-77
2022/10/18 00:04:27;;;;;;;1.57;1.00;;;16.60;98.20;;;;;;5103038;28;20498;-77
2022/10/18 00:06:54;;;;;;;1.50;0.90;;;16.60;98.20;;;;;;5090629;27;20486;-77
2022/10/18 00:09:21;;;;;;;1.57;1.00;;;16.60;98.20;;;;;;5103139;27;20467;-78
2022/10/18 00:11:48;;;;;;;1.57;1.00;;;16.60;98.20;;;;;;5078070;28;20488;-78
2022/10/18 00:14:17;;;;;;;1.50;0.90;;;16.60;98.20;;;;;;5087756;28;20499;-77
2022/10/18 00:16:44;;;;;;;1.50;0.90;;;16.60;98.20;;;;;;5071489;28;20790;-77
2022/10/18 00:47:02;;;;;;;1.53;1.00;;;16.60;98.20;;;;;;5091563;28;20568;-78
2022/10/18 01:02:23;;;;;;;1.60;0.97;;;16.50;98.20;;;;;;5082570;28;20511;-79
2022/10/18 01:04:50;;;;;;;1.53;0.90;;;16.50;98.20;;;;;;5087124;28;20988;-78
2022/10/18 01:07:30;;;;;;;1.57;1.00;;;16.50;98.20;;;;;;5082082;28;20588;-79
2022/10/18 01:10:09;;;;;;;1.60;1.00;;;16.50;98.20;;;;;;5087543;28;20467;-78
2022/10/18 01:12:47;;;;;;;1.60;1.00;;;16.50;98.20;;;;;;5079879;28;20571;-78
2022/10/18 01:15:22;;;;;;;1.53;1.00;;;16.50;98.20;;;;;;5103916;28;20463;-78
2022/10/18 01:17:57;;;;;;;1.60;1.00;;;16.60;98.20;;;;;;5086778;28;21044;-79
2022/10/18 01:20:48;;;;;;;1.53;0.90;;;16.60;98.20;;;;;;5101815;28;20463;-79
2022/10/18 01:23:22;;;;;;;1.50;0.90;;;16.60;98.20;;;;;;5070195;28;20937;-78
2022/10/18 01:26:01;;;;;;;1.57;1.00;;;16.60;98.20;;;;;;5104313;27;20464;-79
2022/10/18 01:45:21;;;;;;;1.50;0.90;;;16.50;98.20;;;;;;5089464;28;20477;-79
2022/10/18 01:47:49;;;;;;;1.50;0.90;;;16.50;98.20;;;;;;5087978;28;20476;-79
2022/10/18 01:50:28;;;;;;;1.60;1.10;;;16.50;98.20;;;;;;5111867;27;20949;-79
2022/10/18 02:00:00;;;;;;;1.57;1.00;;;16.50;98.20;;;;;;5106105;28;20434;-78
2022/10/18 02:02:44;;;;;;;1.53;0.90;;;16.50;98.20;;;;;;5074185;28;20717;-78
2022/10/18 02:05:17;;;;;;;1.60;1.00;;;16.50;98.20;;;;;;5112381;27;20512;-77
2022/10/18 02:07:51;;;;;;;1.60;1.00;;;16.50;98.20;;;;;;5088372;27;21034;-78
2022/10/18 02:10:25;;;;;;;1.60;1.00;;;16.50;98.20;;;;;;5089939;28;20555;-77
2022/10/18 02:12:54;;;;;;;1.60;1.00;;;16.40;98.20;;;;;;5078716;28;20901;-78
2022/10/18 02:15:24;;;;;;;1.57;1.00;;;16.40;98.20;;;;;;5090563;28;20468;-77
2022/10/18 02:17:54;;;;;;;1.50;0.90;;;16.50;98.20;;;;;;5078893;28;20495;-76
2022/10/18 02:20:24;;;;;;;1.50;1.00;;;16.50;98.20;;;;;;5091123;28;20470;-76
2022/10/18 02:22:54;;;;;;;1.57;0.90;;;16.50;98.20;;;;;;5085368;28;20551;-77
2022/10/18 02:25:24;;;;;;;1.57;0.90;;;16.50;98.20;;;;;;5108846;27;20460;-77
2022/10/18 02:48:04;;;;;;;1.57;1.00;;;16.60;98.20;;;;;;5079661;28;20463;-76
2022/10/18 02:50:30;;;;;;;1.50;0.90;;;16.50;98.20;;;;;;5113019;27;20857;-77
2022/10/18 02:52:58;;;;;;;1.50;0.97;;;16.50;98.20;;;;;;5088308;27;20567;-77
2022/10/18 02:55:25;;;;;;;1.50;0.90;;;16.50;98.20;;;;;;5112757;27;20466;-77
2022/10/18 02:57:52;;;;;;;1.57;1.00;;;16.50;98.20;;;;;;5086370;27;20481;-77
2022/10/18 03:00:19;;;;;;;1.50;0.90;;;16.50;98.20;;;;;;5089106;28;20513;-76
2022/10/18 03:02:47;;;;;;;1.50;0.90;;;16.50;98.20;;;;;;5065851;28;20628;-77
2022/10/18 03:05:16;;;;;;;1.53;1.00;;;16.50;98.20;;;;;;5089870;28;20472;-76
2022/10/18 03:07:43;;;;;;;1.53;1.00;;;16.60;98.20;;;;;;5077797;28;20961;-76
2022/10/18 03:10:10;;;;;;;1.57;0.97;;;16.60;98.20;;;;;;5088751;28;20468;-77
2022/10/18 03:12:37;;;;;;;1.57;1.00;;;16.60;98.20;;;;;;5083438;28;20512;-77
2022/10/18 03:15:05;;;;;;;1.57;0.90;;;16.60;98.20;;;;;;5089401;28;20472;-77
2022/10/18 03:17:32;;;;;;;1.50;1.00;;;16.60;98.20;;;;;;5082331;28;20950;-76
2022/10/18 03:19:59;;;;;;;1.57;0.90;;;16.60;98.20;;;;;;5088907;28;20840;-77
2022/10/18 03:22:28;;;;;;;1.57;1.00;;;16.60;98.20;;;;;;5082326;28;20751;-76
2022/10/18 03:24:54;;;;;;;1.50;0.90;;;16.60;98.20;;;;;;5107992;27;20542;-77
2022/10/18 03:27:21;;;;;;;1.57;1.00;;;16.60;98.20;;;;;;5097596;27;20485;-77
2022/10/18 03:29:48;;;;;;;1.57;1.00;;;16.60;98.20;;;;;;5092435;28;20952;-77
2022/10/18 03:32:15;;;;;;;1.57;0.90;;;16.60;98.20;;;;;;5101749;27;20486;-77
2022/10/18 03:34:42;;;;;;;1.57;0.93;;;16.60;98.20;;;;;;5088714;28;20456;-77
2022/10/18 03:37:09;;;;;;;1.50;0.90;;;16.60;98.20;;;;;;5080261;28;21048;-76
2022/10/18 03:39:37;;;;;;;1.60;1.00;;;16.60;98.20;;;;;;5091072;27;20514;-77
2022/10/18 03:42:04;;;;;;;1.50;0.90;;;16.60;98.20;;;;;;5089900;27;20532;-77
2022/10/18 03:44:31;;;;;;;1.50;0.90;;;16.60;98.20;;;;;;5101307;28;20475;-77
2022/10/18 03:46:58;;;;;;;1.57;1.00;;;16.60;98.20;;;;;;5089412;27;20508;-77
2022/10/18 03:49:25;;;;;;;1.50;1.00;;;16.60;98.20;;;;;;5087530;28;20469;-77
2022/10/18 03:51:52;;;;;;;1.57;0.90;;;16.60;98.20;;;;;;5069593;28;20489;-78
2022/10/18 03:54:19;;;;;;;1.60;1.00;;;16.60;98.20;;;;;;5099859;27;20471;-78
2022/10/18 03:56:47;;;;;;;1.50;0.90;;;16.60;98.20;;;;;;5094300;27;20571;-77
2022/10/18 03:59:15;;;;;;;1.60;0.90;;;16.60;98.20;;;;;;5100205;28;21110;-77
2022/10/18 04:01:42;;;;;;;1.50;0.90;;;16.60;98.20;;;;;;5084161;27;21028;-78
2022/10/18 04:04:09;;;;;;;1.57;0.93;;;16.60;98.20;;;;;;5101203;27;20460;-77
2022/10/18 04:06:36;;;;;;;1.60;1.00;;;16.60;98.20;;;;;;5090187;27;20882;-78
2022/10/18 04:09:04;;;;;;;1.50;0.93;;;16.60;98.20;;;;;;5096509;28;20455;-78
2022/10/18 04:11:31;;;;;;;1.57;1.00;;;16.60;98.20;;;;;;5087640;27;20488;-79
2022/10/18 04:13:59;;;;;;;1.57;1.00;;;16.60;98.20;;;;;;5098834;27;20554;-77
2022/10/18 04:16:26;;;;;;;1.50;0.90;;;16.60;98.20;;;;;;5085927;28;21155;-78
2022/10/18 04:18:53;;;;;;;1.53;1.00;;;16.60;98.20;;;;;;5102105;28;20510;-78
2022/10/18 04:21:20;;;;;;;1.53;1.00;;;16.60;98.20;;;;;;5080853;28;20499;-78
2022/10/18 04:23:48;;;;;;;1.53;0.90;;;16.60;98.20;;;;;;5101603;28;20912;-79
2022/10/18 04:26:15;;;;;;;1.57;1.00;;;16.60;98.20;;;;;;5091863;27;21019;-79
2022/10/18 04:28:43;;;;;;;1.60;1.00;;;16.60;98.20;;;;;;5097947;28;20552;-78
2022/10/18 04:31:12;;;;;;;1.50;0.90;;;16.50;98.20;;;;;;5089297;28;21189;-79
2022/10/18 04:33:39;;;;;;;1.57;0.90;;;16.50;98.20;;;;;;5104239;28;20840;-80
2022/10/18 04:36:06;;;;;;;1.50;0.97;;;16.50;98.20;;;;;;5099024;27;20573;-79
2022/10/18 04:38:34;;;;;;;1.53;0.90;;;16.50;98.20;;;;;;5097711;28;21074;-79
2022/10/18 04:41:01;;;;;;;1.57;0.97;;;16.60;98.20;;;;;;5085441;28;20974;-79
2022/10/18 04:43:28;;;;;;;1.57;0.90;;;16.50;98.20;;;;;;5103439;28;20462;-79
2022/10/18 04:45:55;;;;;;;1.50;0.90;;;16.50;98.20;;;;;;5093101;28;20540;-80
2022/10/18 04:48:24;;;;;;;1.50;0.90;;;16.50;98.20;;;;;;5096536;28;20466;-80
2022/10/18 04:50:51;;;;;;;1.53;0.90;;;16.60;98.20;;;;;;5093891;28;20496;-79
2022/10/18 04:53:19;;;;;;;1.50;0.90;;;16.60;98.20;;;;;;5089376;28;20554;-80
2022/10/18 04:55:47;;;;;;;1.57;1.00;;;16.50;98.20;;;;;;5106834;28;20930;-80
2022/10/18 04:58:14;;;;;;;1.57;1.00;;;16.50;98.20;;;;;;5072772;28;20888;-80
2022/10/18 05:00:42;;;;;;;1.50;1.00;;;16.50;98.20;;;;;;5101700;28;20554;-80
2022/10/18 05:03:10;;;;;;;1.50;1.00;;;16.50;98.20;;;;;;5088394;28;20490;-80
2022/10/18 05:05:38;;;;;;;1.57;1.00;;;16.60;98.20;;;;;;5105383;28;20845;-80
2022/10/18 05:08:06;;;;;;;1.53;1.00;;;16.60;98.20;;;;;;5086908;28;20484;-81
2022/10/18 05:10:34;;;;;;;1.53;0.90;;;16.60;98.20;;;;;;5106531;28;20466;-80
2022/10/18 05:13:00;;;;;;;1.50;0.90;;;16.60;98.20;;;;;;5099678;27;20519;-81
2022/10/18 05:15:28;;;;;;;1.57;0.93;;;16.50;98.20;;;;;;5100501;27;20470;-81
2022/10/18 05:17:55;;;;;;;1.50;0.93;;;16.50;98.20;;;;;;5092391;27;20850;-80
2022/10/18 05:20:28;;;;;;;1.53;0.90;;;16.60;98.20;;;;;;5107278;27;20822;-81
2022/10/18 05:22:58;;;;;;;1.57;1.00;;;16.60;98.20;;;;;;5090370;28;20996;-81
2022/10/18 05:25:26;;;;;;;1.57;1.00;;;16.60;98.20;;;;;;5115222;27;20738;-81
2022/10/18 05:27:54;;;;;;;1.60;0.90;;;16.60;98.20;;;;;;5087350;28;20559;-81
2022/10/18 05:30:21;;;;;;;1.50;1.00;;;16.60;98.20;;;;;;5105990;28;20847;-81
2022/10/18 05:32:48;;;;;;;1.57;0.90;;;16.60;98.20;;;;;;5084221;27;20479;-81
2022/10/18 05:35:16;;;;;;;1.50;1.00;;;16.60;98.20;;;;;;5106799;28;20979;-81
2022/10/18 05:37:43;;;;;;;1.57;0.90;;;16.60;98.20;;;;;;5090662;28;20579;-81
2022/10/18 05:40:12;;;;;;;1.57;0.90;;;16.60;98.20;;;;;;5100111;28;20487;-82
2022/10/18 05:42:39;;;;;;;1.60;0.93;;;16.50;98.20;;;;;;5091946;28;20484;-81
2022/10/18 05:45:08;;;;;;;1.53;1.00;;;16.50;98.20;;;;;;5102265;28;20554;-81
2022/10/18 05:47:35;;;;;;;4.97;4.60;;;16.50;98.20;;;;;;5076694;28;20489;-81
2022/10/18 05:50:02;;;;;;;1.57;0.90;;;16.50;98.20;;;;;;5107496;27;20463;-80
2022/10/18 05:52:29;;;;;;;1.53;0.90;;;16.50;98.20;;;;;;5087262;28;20483;-80
2022/10/18 05:54:56;;;;;;;1.57;0.93;;;16.50;98.20;;;;;;5106195;27;20459;-80
2022/10/18 05:57:25;;;;;;;1.53;0.90;;;16.50;98.20;;;;;;5095756;27;20507;-80
2022/10/18 05:59:53;;;;;;;1.57;0.90;;;16.50;98.20;;;;;;5096799;28;20577;-80
2022/10/18 06:02:20;;;;;;;1.50;1.00;;;16.60;98.20;;;;;;5085263;28;20527;-80
2022/10/18 06:04:47;;;;;;;1.53;1.00;;;16.60;98.20;;;;;;5097422;28;20888;-79
2022/10/18 06:07:14;;;;;;;1.50;0.90;;;16.60;98.20;;;;;;5093021;28;21122;-80
2022/10/18 06:09:41;;;;;;;1.50;0.97;;;16.60;98.20;;;;;;5096829;28;20489;-80
2022/10/18 06:12:09;;;;;;;1.57;1.00;;;16.60;98.20;;;;;;5086509;28;20573;-80
2022/10/18 06:14:37;;;;;;;1.50;1.00;;;16.60;98.20;;;;;;5108076;27;20555;-79
2022/10/18 06:17:05;;;;;;;1.53;1.00;;;16.60;98.20;;;;;;5093435;28;20483;-80
2022/10/18 06:19:32;;;;;;;1.53;1.00;;;16.60;98.20;;;;;;5103907;28;20509;-80
2022/10/18 06:21:59;;;;;;;1.53;0.93;;;16.60;98.20;;;;;;5093614;27;20480;-80
2022/10/18 06:24:26;;;;;;;1.57;1.00;;;16.60;98.20;;;;;;5110127;27;20481;-80
2022/10/18 06:26:53;;;;;;;1.57;1.00;;;16.60;98.20;;;;;;5091372;27;20476;-80
2022/10/18 06:29:20;;;;;;;1.57;1.00;;;16.60;98.20;;;;;;5096670;28;20485;-79
2022/10/18 06:35:09;;;;;;;1.53;0.90;;;16.60;98.20;;;;;;5048821;28;20490;-79
2022/10/18 06:37:37;;;;;;;1.50;1.00;;;16.60;98.20;;;;;;5091106;28;21023;-80
2022/10/18 06:40:05;;;;;;;1.53;0.90;;;16.60;98.20;;;;;;5096950;28;20579;-80
2022/10/18 06:42:32;;;;;;;1.50;1.00;;;16.60;98.20;;;;;;5088412;27;20488;-80
2022/10/18 06:45:00;;;;;;;1.60;1.10;;;16.60;98.20;;;;;;5099338;28;20456;-80
2022/10/18 06:47:27;;;;;;;1.50;0.90;;;16.60;98.20;;;;;;5088779;28;20586;-78
2022/10/18 06:49:54;;;;;;;1.53;0.90;;;16.60;98.20;;;;;;5094890;28;20459;-79
2022/10/18 06:52:24;;;;;;;1.50;1.00;;;16.60;98.20;;;;;;5085875;28;20529;-79
2022/10/18 06:54:52;;;;;;;1.53;1.07;;;16.60;98.20;;;;;;5107276;27;20460;-78
2022/10/18 06:57:20;;;;;;;1.57;1.00;;;16.60;98.20;;;;;;5094111;27;20487;-79
2022/10/18 06:59:48;;;;;;;1.57;0.90;;;16.70;98.20;;;;;;5095190;28;20487;-80
2022/10/18 07:02:17;;;;;;;1.57;1.00;;;16.70;98.20;;;;;;5084993;28;20557;-79
2022/10/18 07:04:44;;;;;;;1.53;1.00;;;16.70;98.20;;;;;;5103249;28;20467;-79
2022/10/18 07:07:11;;;;;;;1.60;0.90;;;16.70;98.20;;;;;;5093615;28;20472;-80
2022/10/18 07:09:40;;;;;;;1.57;1.00;;;16.70;98.20;;;;;;5100458;28;20910;-80
2022/10/18 07:12:07;;;;;;;1.50;1.00;;;16.70;98.20;;;;;;5085984;28;20984;-80
2022/10/18 07:14:35;;;;;;;1.50;0.90;;;16.70;98.20;;;;;;5096506;28;20461;-80
2022/10/18 07:17:02;;;;;;;1.53;1.00;;;16.70;98.20;;;;;;5088325;28;20487;-80
2022/10/18 07:19:29;;;;;;;1.53;1.00;;;16.70;98.20;;;;;;5090305;28;20523;-80
2022/10/18 07:21:57;;;;;;;1.53;1.00;;;16.70;98.20;;;;;;5095890;27;20487;-81
2022/10/18 07:24:24;;;;;;;1.53;1.00;;;16.70;98.20;;;;;;5102654;27;20492;-81
2022/10/18 07:26:53;;;;;;;1.53;0.93;;;16.70;98.20;;;;;;5095151;27;21004;-81
2022/10/18 07:29:19;;;;;;;1.50;0.90;;;16.70;98.20;;;;;;5099402;28;20511;-81
2022/10/18 07:31:47;;;;;;;1.53;0.97;;;16.70;98.20;;;;;;5086647;28;20492;-81
2022/10/18 07:34:14;;;;;;;1.57;1.00;;;16.70;98.20;;;;;;5094685;28;20461;-80
2022/10/18 07:36:42;;;;;;;1.50;0.90;;;16.70;98.20;;;;;;5086839;28;20488;-81
2022/10/18 07:39:11;;;;;;;1.57;0.90;;;16.80;98.20;;;;;;5094893;27;20486;-81
2022/10/18 07:41:38;;;;;;;1.53;0.97;;;16.80;98.20;;;;;;5087072;28;20484;-81
2022/10/18 07:44:07;;;;;;;1.50;1.00;;;16.80;98.20;;;;;;5099747;28;20496;-79
2022/10/18 07:46:35;;;;;;;1.57;1.00;;;16.90;98.20;;;;;;5084528;28;20483;-78
2022/10/18 07:49:02;;;;;;;1.60;1.00;;;16.90;98.20;;;;;;5100194;28;20544;-80
2022/10/18 07:51:31;;;;;;;1.60;1.00;;;16.90;98.20;;;;;;5089674;28;20518;-80
2022/10/18 07:53:59;;;;;;;1.50;1.00;;;16.90;98.20;;;;;;5101532;27;20985;-80
2022/10/18 07:56:26;;;;;;;1.53;0.90;;;17.00;98.20;;;;;;5096496;27;20566;-80
2022/10/18 07:58:55;;;;;;;1.60;1.00;;;17.00;98.20;;;;;;5096253;27;20456;-80
2022/10/18 08:01:25;;;;;;;1.70;1.27;;;17.00;98.20;;;;;;5089489;27;20475;-80
2022/10/18 08:03:53;;;;;;;1.50;0.90;;;17.10;98.20;;;;;;5095017;27;20463;-80
2022/10/18 08:06:22;;;;;;;1.53;0.90;;;17.10;98.20;;;;;;5085803;28;20476;-80
2022/10/18 08:08:49;;;;;;;1.50;0.90;;;17.20;98.20;;;;;;5094284;28;20456;-81
2022/10/18 08:11:17;;;;;;;1.60;1.00;;;17.20;98.20;;;;;;5082298;28;21429;-81
2022/10/18 08:13:45;;;;;;;1.60;0.90;;;17.20;98.20;;;;;;5083239;28;20499;-81
2022/10/18 08:16:14;;;;;;;1.50;0.90;;;17.30;98.20;;;;;;5090709;27;20506;-80
2022/10/18 08:18:43;;;;;;;1.60;1.00;;;17.30;98.20;;;;;;5098987;28;20465;-81
2022/10/18 08:21:12;;;;;;;1.60;0.90;;;17.30;98.20;;;;;;5089204;28;20538;-81
2022/10/18 08:23:40;;;;;;;1.60;0.90;;;17.30;98.20;;;;;;5102938;28;20451;-81
2022/10/18 08:26:10;;;;;;;1.60;1.00;;;17.30;98.20;;;;;;5092257;27;20613;-81
2022/10/18 08:28:37;;;;;;;1.60;1.00;;;17.30;98.20;;;;;;5091529;28;20478;-81
2022/10/18 08:31:05;;;;;;;1.60;1.00;;;17.30;98.20;;;;;;5090134;27;20570;-80
2022/10/18 08:33:33;;;;;;;1.53;0.90;;;17.40;98.20;;;;;;5100542;28;21028;-81
2022/10/18 08:36:05;;;;;;;2.53;1.83;;;17.40;98.20;;;;;;5084192;28;21023;-81
2022/10/18 08:38:33;;;;;;;2.13;1.83;;;17.40;98.20;;;;;;5088434;28;20472;-81
2022/10/18 08:41:02;;;;;;;1.60;1.00;;;17.40;98.20;;;;;;5082881;28;20628;-81
2022/10/18 08:43:37;;;;;;;1.60;0.90;;;17.50;98.20;;;;;;5092780;28;20622;-80
2022/10/18 08:46:04;;;;;;;1.60;0.90;;;17.60;98.20;;;;;;5086338;28;20487;-81
2022/10/18 08:48:38;;;;;;;1.60;1.10;;;17.60;98.20;;;;;;5093542;28;20444;-81
2022/10/18 08:51:19;;;;;;;1.60;1.00;;;17.60;98.20;;;;;;5092541;28;20476;-81
2022/10/18 08:53:59;;;;;;;1.60;1.00;;;17.70;98.20;;;;;;5100659;28;20455;-81
2022/10/18 08:56:27;;;;;;;1.60;0.90;;;17.70;98.20;;;;;;5092094;28;20562;-80
2022/10/18 08:58:55;;;;;;;1.60;1.00;;;17.70;98.20;;;;;;5094186;28;20470;-81
2022/10/18 09:01:32;;;;;;;1.60;0.90;;;17.70;98.20;;;;;;5089408;28;20519;-81
2022/10/18 09:04:25;;;;;;;1.60;1.13;;;17.70;98.20;;;;;;5098688;28;20488;-80
2022/10/18 09:07:09;;;;;;;1.60;1.00;;;17.70;98.20;;;;;;5083142;28;20481;-81
2022/10/18 09:09:43;;;;;;;1.60;0.90;;;17.70;98.20;;;;;;5094854;28;20535;-81
2022/10/18 09:12:26;;;;;;;1.60;0.97;;;17.70;98.20;;;;;;5078258;28;21071;-81
2022/10/18 09:15:16;;;;;;;1.63;1.20;;;17.70;98.20;;;;;;5089722;28;20550;-81
2022/10/18 09:17:53;;;;;;;1.57;0.90;;;17.70;98.20;;;;;;5072471;28;20900;-81
2022/10/18 09:20:25;;;;;;;1.50;0.90;;;17.70;98.20;;;;;;5093829;28;20495;-80
2022/10/18 09:22:56;;;;;;;1.60;1.20;;;17.80;98.20;;;;;;5066942;28;20572;-81
2022/10/18 09:25:26;;;;;;;1.60;0.90;;;17.80;98.20;;;;;;5100611;28;20455;-80
2022/10/18 09:27:56;;;;;;;1.60;1.00;;;17.80;98.20;;;;;;5092323;28;20485;-81
2022/10/18 09:30:47;;;;;;;1.60;1.00;;;17.80;98.20;;;;;;5093861;28;20457;-81
2022/10/18 09:33:26;;;;;;;1.60;1.00;;;17.90;98.20;;;;;;5064018;28;20738;-81
2022/10/18 09:35:57;;;;;;;1.60;0.90;;;18.00;98.20;;;;;;5095912;28;20463;-81
2022/10/18 09:38:30;;;;;;;1.60;0.90;;;18.00;98.20;;;;;;5092788;28;20495;-81
2022/10/18 09:41:02;;;;;;;1.60;1.00;;;18.00;98.20;;;;;;5084839;28;20488;-82
2022/10/18 09:43:42;;;;;;;1.60;0.90;;;18.10;98.20;;;;;;5094809;28;20557;-82
2022/10/18 09:46:10;;;;;;;1.60;0.90;;;18.20;98.20;;;;;;5091156;28;20469;-81
2022/10/18 09:48:43;;;;;;;1.60;1.00;;;18.30;98.20;;;;;;5103045;28;20461;-81
2022/10/18 09:51:16;;;;;;;1.60;0.93;;;18.30;98.20;;;;;;5087168;28;20486;-81
2022/10/18 09:54:01;;;;;;;1.60;0.90;;;18.30;98.20;;;;;;5089892;27;20478;-81
2022/10/18 09:56:32;;;;;;;1.60;0.90;;;18.30;98.20;;;;;;5106354;27;20470;-81
2022/10/18 10:00:06;;;;;;;1.60;1.00;;;18.30;98.20;;;;;;5109602;28;20475;-85
2022/10/18 10:05:06;;;;;;;1.60;1.00;;;18.40;98.20;;;;;;5093239;28;20486;-75
2022/10/18 10:07:41;;;;;;;1.60;0.90;;;18.40;98.20;;;;;;5099797;27;20475;-75
2022/10/18 10:10:16;;;;;;;1.60;0.90;;;18.50;98.20;;;;;;5091671;28;20532;-75
2022/10/18 10:12:44;;;;;;;1.60;0.90;;;18.50;98.20;;;;;;5097281;27;20494;-75
2022/10/18 10:15:19;;;;;;;1.60;0.97;;;18.60;98.20;;;;;;5109735;28;20494;-76
2022/10/18 10:17:56;;;;;;;1.60;0.90;;;18.70;98.20;;;;;;5099596;27;20496;-75
2022/10/18 10:20:25;;;;;;;1.63;1.10;;;18.80;98.20;;;;;;5123148;27;20558;-77
2022/10/18 10:22:53;;;;;;;1.60;0.90;;;18.80;98.20;;;;;;5101087;27;20495;-77
2022/10/18 10:25:29;;;;;;;1.60;0.90;;;18.90;98.20;;;;;;5117930;27;20811;-76
2022/10/18 10:28:01;;;;;;;1.60;1.00;;;18.90;98.20;;;;;;5101601;27;20474;-76
2022/10/18 10:30:31;;;;;;;1.60;0.90;;;18.90;98.20;;;;;;5119838;27;20979;-76
2022/10/18 10:32:59;;;;;;;1.60;0.90;;;19.00;98.20;;;;;;5099912;27;20488;-76
2022/10/18 10:35:31;;;;;;;1.60;0.90;;;19.10;98.20;;;;;;5110634;27;20829;-76
2022/10/18 10:37:59;;;;;;;1.60;0.90;;;19.30;98.20;;;;;;5102979;27;20992;-77
2022/10/18 10:40:29;;;;;;;1.60;0.90;;;19.40;98.20;;;;;;5116731;27;20487;-76
2022/10/18 10:43:14;;;;;;;1.80;1.40;;;19.50;98.20;;;;;;5106239;27;20471;-77
2022/10/18 10:45:56;;;;;;;1.60;0.90;;;19.60;98.20;;;;;;5113065;27;20460;-76
2022/10/18 10:48:25;;;;;;;1.60;0.90;;;19.70;98.20;;;;;;5095896;28;20479;-76
2022/10/18 10:50:57;;;;;;;1.60;0.90;;;19.70;98.20;;;;;;5099712;28;20461;-76
2022/10/18 10:53:40;;;;;;;1.70;1.20;;;19.80;98.20;;;;;;5103186;27;20566;-76
2022/10/18 10:56:17;;;;;;;1.60;0.90;;;19.80;98.20;;;;;;5100913;27;20912;-76
2022/10/18 10:58:44;;;;;;;1.80;1.50;;;19.90;98.20;;;;;;5123401;27;20469;-76
2022/10/18 11:01:20;;;;;;;2.73;2.47;;;19.90;98.20;;;;;;5107479;27;20471;-76
2022/10/18 11:03:48;;;;;;;1.60;1.00;;;19.90;98.20;;;;;;5113537;27;20831;-77
2022/10/18 11:06:51;;;;;;;1.60;0.90;;;19.90;98.20;;;;;;5115663;27;20471;-77
2022/10/18 11:09:46;;;;;;;1.70;1.27;;;20.00;98.20;;;;;;5106680;27;20812;-78
2022/10/18 11:12:21;;;;;;;1.60;0.97;;;20.00;98.20;;;;;;5108159;27;20471;-76
2022/10/18 11:14:59;;;;;;;1.53;0.90;;;20.00;98.20;;;;;;5127460;27;20483;-76
2022/10/18 11:17:36;;;;;;;1.60;1.00;;;20.10;98.20;;;;;;5104025;27;20570;-76
2022/10/18 11:20:27;;;;;;;1.60;0.93;;;20.20;98.20;;;;;;5115695;27;20486;-75
2022/10/18 11:23:01;;;;;;;1.60;0.90;;;20.50;98.20;;;;;;5102395;27;20754;-76
2022/10/18 11:25:49;;;;;;;1.60;1.00;;;20.70;98.20;;;;;;5115827;27;20930;-75
2022/10/18 11:28:28;;;;;;;1.60;1.00;;;20.90;98.20;;;;;;5089574;28;20475;-76
2022/10/18 11:31:07;;;;;;;2.03;1.83;;;20.90;98.20;;;;;;5101360;27;20463;-77
2022/10/18 11:33:45;;;;;;;1.70;1.10;;;20.90;98.20;;;;;;5130324;27;20726;-75
2022/10/18 11:36:18;;;;;;;2.13;1.93;;;20.80;98.20;;;;;;5101165;27;20523;-75
2022/10/18 11:38:54;;;;;;;1.60;0.90;;;20.80;98.20;;;;;;5115530;27;20481;-77
2022/10/18 11:41:35;;;;;;;1.60;1.10;;;20.70;98.20;;;;;;5104344;27;20558;-77
2022/10/18 11:44:13;;;;;;;1.80;1.50;;;20.80;98.20;;;;;;5121967;27;20490;-74
2022/10/18 11:46:57;;;;;;;1.60;0.90;;;20.80;98.20;;;;;;5116198;27;20542;-73
2022/10/18 11:49:46;;;;;;;1.60;1.00;;;20.70;98.20;;;;;;5128326;27;20462;-76
2022/10/18 11:52:20;;;;;;;1.60;0.90;;;20.60;98.20;;;;;;5105265;27;20890;-75
2022/10/18 11:54:57;;;;;;;1.60;1.00;;;20.60;98.20;;;;;;5110756;27;20507;-74
2022/10/18 11:57:43;;;;;;;1.60;0.90;;;20.40;98.20;;;;;;5097044;27;21098;-75
2022/10/18 12:00:25;;;;;;;1.57;0.90;;;20.30;98.20;;;;;;5107583;28;20467;-75
2022/10/18 12:03:11;;;;;;;1.60;0.90;;;20.20;98.20;;;;;;5102088;27;20491;-74
2022/10/18 12:05:40;;;;;;;1.60;1.00;;;20.10;98.20;;;;;;5109915;28;20471;-75
2022/10/18 12:08:10;;;;;;;1.60;1.00;;;20.10;98.20;;;;;;5101847;27;20484;-74
2022/10/18 12:10:51;;;;;;;1.50;0.90;;;20.10;98.20;;;;;;5112585;28;20459;-76
2022/10/18 12:13:25;;;;;;;1.53;0.90;;;20.00;98.20;;;;;;5081228;28;20483;-77
2022/10/18 12:15:55;;;;;;;1.53;0.90;;;20.00;98.20;;;;;;5098056;28;20459;-77
2022/10/18 12:18:25;;;;;;;1.60;0.90;;;20.00;98.20;;;;;;5110036;28;20552;-76
2022/10/18 12:20:55;;;;;;;1.60;1.00;;;19.90;98.20;;;;;;5099309;27;20479;-75
2022/10/18 12:23:37;;;;;;;1.57;0.90;;;19.90;98.20;;;;;;5112453;27;20522;-74
2022/10/18 12:26:06;;;;;;;1.50;0.90;;;19.80;98.20;;;;;;5108714;27;20463;-76
2022/10/18 12:28:43;;;;;;;1.57;0.93;;;19.80;98.20;;;;;;5118280;27;20459;-75
2022/10/18 12:31:22;;;;;;;1.57;0.90;;;19.80;98.20;;;;;;5106617;27;20557;-75
2022/10/18 12:33:52;;;;;;;1.53;0.90;;;19.70;98.20;;;;;;5108133;28;20475;-75
2022/10/18 12:36:44;;;;;;;1.60;1.00;;;19.70;98.20;;;;;;5101397;28;20475;-73
2022/10/18 12:39:18;;;;;;;1.60;0.90;;;19.80;98.20;;;;;;5123111;27;20454;-74
2022/10/18 12:41:47;;;;;;;1.53;0.90;;;19.90;98.20;;;;;;5108864;27;20487;-73
2022/10/18 12:44:21;;;;;;;1.57;0.90;;;20.10;98.20;;;;;;5107299;28;20544;-73
2022/10/18 12:46:52;;;;;;;1.60;0.90;;;20.30;98.20;;;;;;5102518;28;20474;-74
2022/10/18 12:49:28;;;;;;;1.50;0.90;;;20.60;98.20;;;;;;5108019;28;20536;-73
2022/10/18 12:51:57;;;;;;;1.53;0.90;;;20.80;98.20;;;;;;5096354;28;20909;-75
2022/10/18 12:54:28;;;;;;;1.60;0.90;;;20.90;98.20;;;;;;5109847;28;20482;-74
2022/10/18 12:56:56;;;;;;;1.60;0.90;;;21.00;98.20;;;;;;5106870;28;20531;-75
2022/10/18 12:59:53;;;;;;;1.57;0.90;;;21.00;98.20;;;;;;5110121;28;20487;-75
2022/10/18 13:02:35;;;;;;;1.57;0.90;;;21.10;98.20;;;;;;5103201;28;20480;-77
2022/10/18 13:05:41;;;;;;;1.57;0.90;;;21.20;98.20;;;;;;5113717;28;20814;-75
2022/10/18 13:08:44;;;;;;;1.53;0.90;;;21.20;98.20;;;;;;5107438;28;20488;-75
2022/10/18 13:11:34;;;;;;;1.60;0.90;;;21.20;98.20;;;;;;5096364;28;21069;-75
2022/10/18 13:14:23;;;;;;;1.57;0.90;;;21.30;98.20;;;;;;5089729;28;20482;-78
2022/10/18 13:16:58;;;;;;;1.57;0.90;;;21.40;98.20;;;;;;5101900;28;21289;-76
2022/10/18 13:19:35;;;;;;;1.57;0.90;;;21.50;98.20;;;;;;5113925;28;20905;-75
2022/10/18 13:22:19;;;;;;;1.57;0.90;;;21.30;98.20;;;;;;5093277;27;20502;-76
2022/10/18 13:25:01;;;;;;;1.53;0.90;;;21.10;98.20;;;;;;5114551;27;20483;-77
2022/10/18 13:27:40;;;;;;;1.53;0.90;;;21.10;98.20;;;;;;5110617;27;20485;-76
2022/10/18 13:30:29;;;;;;;1.57;0.90;;;21.00;98.20;;;;;;5122588;27;21103;-77
2022/10/18 13:33:05;;;;;;;1.60;1.00;;;20.80;98.20;;;;;;5103948;27;20483;-77
2022/10/18 13:35:55;;;;;;;1.60;0.90;;;20.70;98.20;;;;;;5117747;27;20469;-77
2022/10/18 13:38:40;;;;;;;1.57;0.90;;;20.70;98.20;;;;;;5082889;27;21073;-76
2022/10/18 13:41:09;;;;;;;1.53;0.90;;;20.70;98.20;;;;;;5099934;27;21023;-75
2022/10/18 13:44:12;;;;;;;1.53;0.90;;;20.70;98.20;;;;;;5110263;28;21032;-76
2022/10/18 13:47:18;;;;;;;1.57;1.07;;;20.70;98.20;;;;;;5056704;27;20547;-75
2022/10/18 13:50:15;;;;;;;1.53;0.90;;;20.80;98.20;;;;;;5122234;27;20450;-76
2022/10/18 13:53:14;;;;;;;1.50;0.90;;;20.70;98.20;;;;;;5104855;27;20494;-77
2022/10/18 13:55:54;;;;;;;1.60;1.00;;;20.70;98.20;;;;;;5112129;27;20471;-76
2022/10/18 13:58:29;;;;;;;1.60;1.10;;;20.80;98.20;;;;;;5084393;28;20808;-76
2022/10/18 14:01:09;;;;;;;1.57;0.90;;;20.70;98.20;;;;;;5101792;27;20518;-75
2022/10/18 14:04:02;;;;;;;1.53;0.90;;;20.70;98.20;;;;;;5116128;27;20491;-76
2022/10/18 14:06:35;;;;;;;1.50;0.90;;;20.60;98.20;;;;;;5101053;27;20529;-77
2022/10/18 14:09:12;;;;;;;1.50;0.90;;;20.50;98.20;;;;;;5109255;27;20928;-76
2022/10/18 14:11:43;;;;;;;1.53;0.90;;;20.60;98.20;;;;;;5099362;28;20927;-75
2022/10/18 14:14:16;;;;;;;1.53;0.90;;;20.50;98.20;;;;;;5108813;27;20479;-76
2022/10/18 14:16:50;;;;;;;1.57;0.90;;;20.50;98.20;;;;;;5097739;28;20570;-75
2022/10/18 14:19:26;;;;;;;1.60;0.90;;;20.50;98.20;;;;;;5105111;27;20951;-75
2022/10/18 14:21:59;;;;;;;1.60;1.00;;;20.50;98.20;;;;;;5103100;27;20567;-75
2022/10/18 14:24:29;;;;;;;1.53;0.90;;;20.40;98.20;;;;;;5115705;27;20485;-75
2022/10/18 14:27:16;;;;;;;1.50;0.90;;;20.30;98.20;;;;;;5108327;27;20550;-74
2022/10/18 14:29:43;;;;;;;1.53;0.90;;;20.20;98.20;;;;;;5109098;27;20467;-74
2022/10/18 14:32:20;;;;;;;1.80;1.50;;;20.10;98.20;;;;;;5105605;27;20647;-74
2022/10/18 14:34:48;;;;;;;1.57;0.90;;;20.10;98.20;;;;;;5109259;28;20486;-76
2022/10/18 14:37:26;;;;;;;1.60;0.90;;;20.10;98.20;;;;;;5102177;27;20476;-74
2022/10/18 14:39:54;;;;;;;1.60;1.10;;;20.00;98.20;;;;;;5107250;27;20489;-74
2022/10/18 14:42:24;;;;;;;1.57;0.90;;;19.80;98.20;;;;;;5107127;27;20536;-74
2022/10/18 14:44:51;;;;;;;1.53;0.90;;;19.70;98.20;;;;;;5118161;27;20503;-74
2022/10/18 14:47:22;;;;;;;1.53;0.90;;;19.70;98.20;;;;;;5099447;27;20471;-74